createdAt,value
2023-01-25T00:02:02.722Z,3.83
2023-01-25T00:05:06.922Z,3.78
2023-01-25T00:08:11.306Z,3.93
2023-01-25T00:11:15.008Z,3.88
2023-01-25T00:14:19.146Z,3.86
2023-01-25T00:17:22.972Z,3.69
2023-01-25T00:20:26.839Z,3.41
2023-01-25T00:23:30.713Z,3.26
2023-01-25T00:26:34.814Z,3.67
2023-01-25T00:29:38.984Z,3.78
2023-01-25T00:32:42.895Z,3.85
2023-01-25T00:35:46.795Z,3.92
2023-01-25T00:38:50.941Z,3.91
2023-01-25T00:41:55.189Z,3.60
2023-01-25T00:44:59.550Z,3.73
2023-01-25T00:48:03.576Z,3.72
2023-01-25T00:51:07.591Z,3.34
2023-01-25T00:54:13.621Z,3.60
2023-01-25T00:57:17.418Z,3.54
2023-01-25T01:00:21.705Z,3.64
2023-01-25T01:03:26.113Z,3.58
2023-01-25T01:06:29.846Z,3.69
2023-01-25T01:09:34.086Z,3.65
2023-01-25T01:12:38.413Z,3.54
2023-01-25T01:15:42.388Z,3.50
2023-01-25T01:18:46.761Z,3.64
2023-01-25T01:21:50.908Z,3.69
2023-01-25T01:24:55.021Z,3.36
2023-01-25T01:27:59.142Z,3.43
2023-01-25T01:31:03.234Z,3.56
2023-01-25T01:34:07.146Z,3.48
2023-01-25T01:37:11.037Z,3.52
2023-01-25T01:40:15.405Z,3.07
2023-01-25T01:43:19.506Z,2.95
2023-01-25T01:46:23.675Z,2.90
2023-01-25T01:49:27.773Z,3.30
2023-01-25T01:52:31.941Z,3.40
2023-01-25T01:55:36.074Z,3.23
2023-01-25T01:58:40.177Z,2.90
2023-01-25T02:01:43.925Z,3.01
2023-01-25T02:04:47.680Z,3.26
2023-01-25T02:07:51.759Z,3.03
2023-01-25T02:10:56.121Z,2.68
2023-01-25T02:14:00.183Z,3.14
2023-01-25T02:17:04.274Z,3.15
2023-01-25T02:20:08.373Z,3.17
2023-01-25T02:23:12.436Z,3.06
2023-01-25T02:26:16.756Z,2.84
2023-01-25T02:29:20.717Z,2.95
2023-01-25T02:32:24.408Z,3.40
2023-01-25T02:35:29.297Z,3.17
2023-01-25T02:38:33.666Z,3.24
2023-01-25T02:41:37.739Z,3.06
2023-01-25T02:44:41.634Z,2.86
2023-01-25T02:47:45.624Z,2.44
2023-01-25T02:50:49.744Z,2.72
2023-01-25T02:53:53.794Z,2.92
2023-01-25T02:56:57.669Z,2.47
2023-01-25T03:00:01.696Z,2.86
2023-01-25T03:03:05.779Z,2.77
2023-01-25T03:06:09.946Z,2.97
2023-01-25T03:09:14.244Z,2.70
2023-01-25T03:12:17.954Z,2.90
2023-01-25T03:15:22.150Z,2.70
2023-01-25T03:18:26.406Z,3.01
2023-01-25T03:21:34.439Z,2.77
2023-01-25T03:24:38.618Z,3.20
2023-01-25T03:27:42.356Z,3.27
2023-01-25T03:30:46.448Z,3.42
2023-01-25T03:33:50.432Z,3.28
2023-01-25T03:36:54.556Z,3.63
2023-01-25T03:39:58.615Z,3.77
2023-01-25T03:43:02.828Z,3.50
2023-01-25T03:46:09.025Z,3.73
2023-01-25T03:49:13.850Z,3.53
2023-01-25T03:52:17.727Z,3.42
2023-01-25T03:55:23.043Z,3.49
2023-01-25T03:58:27.082Z,3.29
2023-01-25T04:01:31.070Z,3.13
2023-01-25T04:04:35.306Z,2.92
2023-01-25T04:07:39.444Z,2.93
2023-01-25T04:10:43.591Z,3.03
2023-01-25T04:13:47.722Z,2.97
2023-01-25T04:16:52.783Z,3.02
2023-01-25T04:19:56.847Z,2.16
2023-01-25T04:23:00.869Z,2.43
2023-01-25T04:26:04.715Z,2.13
2023-01-25T04:29:08.795Z,1.76
2023-01-25T04:32:12.862Z,1.61
2023-01-25T04:35:16.909Z,1.44
2023-01-25T04:38:20.895Z,1.95
2023-01-25T04:41:24.858Z,2.39
2023-01-25T04:44:28.678Z,2.54
2023-01-25T04:47:32.457Z,2.62
2023-01-25T04:50:37.867Z,2.64
2023-01-25T04:53:41.922Z,2.19
2023-01-25T04:56:45.925Z,2.07
2023-01-25T04:59:49.655Z,1.85
2023-01-25T05:02:53.715Z,2.22
2023-01-25T05:05:57.870Z,2.52
2023-01-25T05:09:02.207Z,2.45
2023-01-25T05:12:05.756Z,2.67
2023-01-25T05:15:10.150Z,2.58
2023-01-25T05:18:14.149Z,2.72
2023-01-25T05:21:18.530Z,2.59
2023-01-25T05:24:22.737Z,2.27
2023-01-25T05:27:26.364Z,2.29
2023-01-25T05:30:30.577Z,2.25
2023-01-25T05:33:34.650Z,2.30
2023-01-25T05:36:38.592Z,2.54
2023-01-25T05:39:42.529Z,2.63
2023-01-25T05:42:46.676Z,2.54
2023-01-25T05:45:50.612Z,2.59
2023-01-25T05:48:54.525Z,2.62
2023-01-25T05:51:58.395Z,2.64
2023-01-25T05:55:02.458Z,2.49
2023-01-25T05:58:09.102Z,2.19
2023-01-25T06:01:13.029Z,2.23
2023-01-25T06:04:17.741Z,1.86
2023-01-25T06:07:24.457Z,1.80
2023-01-25T06:10:28.564Z,2.00
2023-01-25T06:13:33.353Z,1.71
2023-01-25T06:16:37.303Z,2.09
2023-01-25T06:19:42.243Z,1.68
2023-01-25T06:22:46.753Z,1.45
2023-01-25T06:25:51.267Z,1.41
2023-01-25T06:28:54.871Z,1.72
2023-01-25T06:31:58.754Z,1.82
2023-01-25T06:35:02.544Z,1.94
2023-01-25T06:38:06.478Z,2.09
2023-01-25T06:41:11.210Z,2.20
2023-01-25T06:44:16.195Z,2.39
2023-01-25T06:47:19.967Z,2.54
2023-01-25T06:50:24.153Z,2.61
2023-01-25T06:53:28.684Z,2.47
2023-01-25T06:56:32.781Z,2.46
2023-01-25T06:59:36.517Z,2.51
2023-01-25T07:02:41.531Z,2.28
2023-01-25T07:05:45.703Z,1.86
2023-01-25T07:08:49.900Z,2.01
2023-01-25T07:11:53.879Z,1.84
2023-01-25T07:14:57.940Z,1.67
2023-01-25T07:18:15.521Z,1.63
2023-01-25T07:21:20.150Z,1.25
2023-01-25T07:24:24.263Z,1.14
2023-01-25T07:27:27.929Z,1.09
2023-01-25T07:30:31.893Z,1.16
2023-01-25T07:33:36.072Z,1.76
2023-01-25T07:36:40.221Z,1.84
2023-01-25T07:39:44.420Z,1.93
2023-01-25T07:42:48.491Z,2.17
2023-01-25T07:45:55.061Z,2.49
2023-01-25T07:48:58.908Z,2.66
2023-01-25T07:52:03.052Z,2.31
2023-01-25T07:55:07.833Z,2.46
2023-01-25T07:58:11.957Z,2.51
2023-01-25T08:01:16.016Z,2.52
2023-01-25T08:04:20.473Z,2.98
2023-01-25T08:07:24.648Z,3.21
2023-01-25T08:10:28.602Z,2.91
2023-01-25T08:13:32.714Z,2.62
2023-01-25T08:16:36.747Z,2.55
2023-01-25T08:19:40.805Z,2.92
2023-01-25T08:22:44.771Z,3.38
2023-01-25T08:25:48.610Z,3.69
2023-01-25T08:28:52.631Z,3.73
2023-01-25T08:31:57.015Z,3.84
2023-01-25T08:35:01.022Z,3.88
2023-01-25T08:38:05.059Z,3.80
2023-01-25T08:41:09.209Z,3.84
2023-01-25T08:44:13.470Z,3.70
2023-01-25T08:47:17.586Z,4.15
2023-01-25T08:50:21.397Z,4.33
2023-01-25T08:53:25.242Z,4.48
2023-01-25T08:56:29.207Z,4.59
2023-01-25T08:59:33.378Z,4.50
2023-01-25T09:02:37.531Z,4.72
2023-01-25T09:05:41.661Z,4.60
2023-01-25T09:08:46.174Z,4.53
2023-01-25T09:11:50.360Z,4.22
2023-01-25T09:14:54.526Z,3.97
2023-01-25T09:17:58.724Z,4.34
2023-01-25T09:21:02.789Z,4.87
2023-01-25T09:24:07.936Z,5.10
2023-01-25T09:27:12.260Z,5.24
2023-01-25T09:30:18.700Z,4.08
2023-01-25T09:33:23.277Z,4.32
2023-01-25T09:36:27.492Z,4.80
2023-01-25T09:39:31.787Z,4.85
2023-01-25T09:42:35.624Z,4.54
2023-01-25T09:45:39.669Z,4.63
2023-01-25T09:48:43.819Z,4.76
2023-01-25T09:51:47.721Z,5.16
2023-01-25T09:54:51.654Z,5.43
2023-01-25T09:57:55.669Z,5.58
2023-01-25T10:01:01.249Z,5.63
2023-01-25T10:04:05.599Z,5.67
2023-01-25T10:07:09.762Z,5.81
2023-01-25T10:10:13.684Z,5.76
2023-01-25T10:13:17.927Z,6.03
2023-01-25T10:16:26.130Z,6.25
2023-01-25T10:19:30.694Z,5.94
2023-01-25T10:22:34.921Z,6.15
2023-01-25T10:25:39.161Z,5.40
2023-01-25T10:28:43.247Z,5.87
2023-01-25T10:31:46.979Z,6.14
2023-01-25T10:34:56.697Z,6.02
2023-01-25T10:38:12.197Z,6.15
2023-01-25T10:41:19.415Z,6.21
2023-01-25T10:44:23.519Z,6.29
2023-01-25T10:47:27.407Z,6.39
2023-01-25T10:50:33.541Z,6.31
2023-01-25T10:53:40.787Z,6.49
2023-01-25T10:56:45.062Z,6.79
2023-01-25T10:59:49.033Z,6.34
2023-01-25T11:02:53.086Z,6.43
2023-01-25T11:05:57.124Z,6.71
2023-01-25T11:09:01.302Z,6.65
2023-01-25T11:12:05.333Z,6.72
2023-01-25T11:15:09.692Z,6.87
2023-01-25T11:18:13.333Z,6.32
2023-01-25T11:21:17.233Z,6.50
2023-01-25T11:24:21.803Z,6.41
2023-01-25T11:27:25.736Z,6.71
2023-01-25T11:30:29.966Z,6.48
2023-01-25T11:33:33.899Z,6.43
2023-01-25T11:36:37.912Z,6.69
2023-01-25T11:39:42.102Z,6.28
2023-01-25T11:42:46.226Z,6.70
2023-01-25T11:45:50.748Z,7.13
2023-01-25T11:48:54.666Z,6.99
2023-01-25T11:51:58.690Z,6.75
2023-01-25T11:55:02.851Z,6.30
2023-01-25T11:58:06.765Z,6.85
2023-01-25T12:01:10.545Z,6.98
2023-01-25T12:04:14.525Z,6.21
2023-01-25T12:07:18.516Z,6.48
2023-01-25T12:10:22.635Z,6.26
2023-01-25T12:13:26.765Z,5.68
2023-01-25T12:16:30.719Z,6.05
2023-01-25T12:19:34.655Z,5.55
2023-01-25T12:22:41.936Z,6.20
2023-01-25T12:25:48.159Z,5.90
2023-01-25T12:28:52.198Z,6.13
2023-01-25T12:31:56.604Z,6.44
2023-01-25T12:35:03.660Z,6.38
2023-01-25T12:38:07.674Z,6.90
2023-01-25T12:41:11.797Z,6.98
2023-01-25T12:44:15.889Z,6.07
2023-01-25T12:47:20.089Z,5.60
2023-01-25T12:50:24.280Z,5.50
2023-01-25T12:53:27.966Z,5.82
2023-01-25T12:56:31.919Z,5.50
2023-01-25T12:59:36.069Z,5.85
2023-01-25T13:02:40.026Z,5.98
2023-01-25T13:05:44.021Z,6.61
2023-01-25T13:08:49.005Z,6.35
2023-01-25T13:11:53.092Z,5.44
2023-01-25T13:14:57.147Z,5.84
2023-01-25T13:18:01.203Z,5.84
2023-01-25T13:21:05.230Z,6.20
2023-01-25T13:24:09.088Z,5.99
2023-01-25T13:27:13.035Z,5.95
2023-01-25T13:30:17.190Z,5.22
2023-01-25T13:33:21.105Z,5.23
2023-01-25T13:36:27.097Z,5.14
2023-01-25T13:39:31.298Z,4.86
2023-01-25T13:42:35.474Z,4.85
2023-01-25T13:45:39.699Z,5.46
2023-01-25T13:48:43.733Z,6.06
2023-01-25T13:51:47.680Z,5.29
2023-01-25T13:54:51.651Z,5.65
2023-01-25T13:57:56.649Z,5.62
2023-01-25T14:01:00.830Z,5.71
2023-01-25T14:04:04.688Z,5.70
2023-01-25T14:07:08.668Z,6.05
2023-01-25T14:10:12.884Z,6.24
2023-01-25T14:13:16.871Z,6.52
2023-01-25T14:16:21.130Z,6.40
2023-01-25T14:19:25.135Z,6.32
2023-01-25T14:22:29.202Z,6.44
2023-01-25T14:25:33.144Z,6.34
2023-01-25T14:28:37.123Z,5.46
2023-01-25T14:31:41.221Z,6.05
2023-01-25T14:34:45.096Z,6.00
2023-01-25T14:37:49.158Z,5.95
2023-01-25T14:40:53.358Z,5.81
2023-01-25T14:43:57.391Z,5.41
2023-01-25T14:47:01.256Z,5.98
2023-01-25T14:50:05.157Z,6.41
2023-01-25T14:53:09.065Z,6.39
2023-01-25T14:56:13.004Z,6.45
2023-01-25T14:59:17.061Z,6.37
2023-01-25T15:02:20.944Z,6.30
2023-01-25T15:05:24.976Z,5.91
2023-01-25T15:08:29.085Z,5.83
2023-01-25T15:11:33.240Z,5.96
2023-01-25T15:14:37.232Z,5.77
2023-01-25T15:17:41.271Z,5.37
2023-01-25T15:20:45.264Z,5.38
2023-01-25T15:23:49.330Z,5.43
2023-01-25T15:26:53.271Z,5.39
2023-01-25T15:29:57.318Z,5.53
2023-01-25T15:33:01.233Z,5.88
2023-01-25T15:36:05.481Z,5.24
2023-01-25T15:39:09.607Z,5.54
2023-01-25T15:42:13.497Z,5.81
2023-01-25T15:45:17.452Z,5.91
2023-01-25T15:48:21.672Z,5.68
2023-01-25T15:51:25.485Z,5.66
2023-01-25T15:54:29.368Z,5.56
2023-01-25T15:57:33.386Z,5.56
2023-01-25T16:00:37.545Z,5.42
2023-01-25T16:03:41.753Z,5.17
2023-01-25T16:06:45.708Z,5.56
2023-01-25T16:09:49.502Z,5.38
2023-01-25T16:12:53.668Z,5.10
2023-01-25T16:15:57.795Z,4.85
2023-01-25T16:19:02.005Z,5.21
2023-01-25T16:22:05.879Z,5.62
2023-01-25T16:25:09.860Z,5.75
2023-01-25T16:28:13.720Z,5.22
2023-01-25T16:31:31.343Z,5.51
2023-01-25T16:34:36.642Z,5.69
2023-01-25T16:37:40.663Z,5.80
2023-01-25T16:40:44.578Z,5.39
2023-01-25T16:43:48.769Z,5.54
2023-01-25T16:46:52.888Z,5.39
2023-01-25T16:49:56.890Z,4.84
2023-01-25T16:53:00.987Z,5.15
2023-01-25T16:56:04.669Z,5.50
2023-01-25T16:59:08.686Z,5.15
2023-01-25T17:02:12.829Z,5.51
2023-01-25T17:05:16.589Z,5.29
2023-01-25T17:08:20.580Z,5.52
2023-01-25T17:11:24.573Z,5.79
2023-01-25T17:14:28.658Z,5.84
2023-01-25T17:17:32.515Z,5.49
2023-01-25T17:20:36.506Z,5.21
2023-01-25T17:23:40.332Z,5.40
2023-01-25T17:26:44.438Z,5.31
2023-01-25T17:29:48.525Z,5.48
2023-01-25T17:32:52.442Z,5.49
2023-01-25T17:35:56.511Z,5.70
2023-01-25T17:39:00.781Z,5.75
2023-01-25T17:42:04.907Z,5.19
2023-01-25T17:45:09.000Z,5.56
2023-01-25T17:48:13.195Z,5.71
2023-01-25T17:51:17.243Z,5.51
2023-01-25T17:54:21.334Z,5.46
2023-01-25T17:57:25.212Z,5.44
2023-01-25T18:00:29.207Z,5.25
2023-01-25T18:03:34.954Z,5.50
2023-01-25T18:06:38.835Z,5.49
2023-01-25T18:09:42.843Z,5.42
2023-01-25T18:12:59.196Z,5.23
2023-01-25T18:16:07.530Z,4.87
2023-01-25T18:19:11.537Z,4.89
2023-01-25T18:22:15.546Z,4.97
2023-01-25T18:25:19.856Z,4.90
2023-01-25T18:28:23.667Z,5.05
2023-01-25T18:31:27.835Z,5.38
2023-01-25T18:34:31.752Z,5.48
2023-01-25T18:37:35.890Z,5.35
2023-01-25T18:40:39.938Z,4.93
2023-01-25T18:43:43.967Z,5.02
2023-01-25T18:46:47.949Z,4.82
2023-01-25T18:49:52.036Z,4.98
2023-01-25T18:52:56.333Z,4.80
2023-01-25T18:56:00.476Z,4.70
2023-01-25T18:59:04.460Z,4.68
2023-01-25T19:02:08.577Z,4.60
2023-01-25T19:05:12.921Z,4.83
2023-01-25T19:08:17.427Z,4.95
2023-01-25T19:11:21.483Z,4.65
2023-01-25T19:14:25.270Z,4.34
2023-01-25T19:17:29.315Z,4.67
2023-01-25T19:20:33.467Z,4.62
2023-01-25T19:23:37.261Z,4.49
2023-01-25T19:26:41.258Z,4.81
2023-01-25T19:29:45.257Z,5.01
2023-01-25T19:32:49.492Z,4.82
2023-01-25T19:35:53.486Z,4.77
2023-01-25T19:38:57.344Z,4.82
2023-01-25T19:42:01.494Z,4.88
2023-01-25T19:45:05.563Z,5.01
2023-01-25T19:48:09.661Z,5.03
2023-01-25T19:51:13.547Z,4.81
2023-01-25T19:54:17.410Z,4.71
2023-01-25T19:57:21.496Z,4.37
2023-01-25T20:00:25.814Z,4.60
2023-01-25T20:03:29.884Z,4.98
2023-01-25T20:06:35.100Z,4.59
2023-01-25T20:09:39.147Z,4.12
2023-01-25T20:12:43.247Z,4.35
2023-01-25T20:15:47.309Z,4.66
2023-01-25T20:18:51.466Z,4.95
2023-01-25T20:21:55.420Z,4.61
2023-01-25T20:24:59.353Z,4.66
2023-01-25T20:28:04.539Z,5.01
2023-01-25T20:31:08.438Z,5.10
2023-01-25T20:34:12.567Z,4.70
2023-01-25T20:37:16.512Z,4.90
2023-01-25T20:40:20.737Z,4.67
2023-01-25T20:43:24.459Z,4.33
2023-01-25T20:46:28.578Z,4.15
2023-01-25T20:49:32.465Z,4.62
2023-01-25T20:52:36.401Z,4.78
2023-01-25T20:55:40.454Z,4.97
2023-01-25T20:58:44.489Z,5.05
2023-01-25T21:01:48.581Z,5.23
2023-01-25T21:04:52.556Z,5.12
2023-01-25T21:07:56.341Z,4.92
2023-01-25T21:11:00.339Z,4.55
2023-01-25T21:14:04.924Z,4.06
2023-01-25T21:17:09.054Z,4.27
2023-01-25T21:20:12.826Z,4.57
2023-01-25T21:23:16.986Z,4.77
2023-01-25T21:26:21.138Z,4.81
2023-01-25T21:29:25.187Z,4.80
2023-01-25T21:32:28.981Z,4.94
2023-01-25T21:35:33.032Z,4.50
2023-01-25T21:38:36.954Z,4.66
2023-01-25T21:41:41.175Z,4.77
2023-01-25T21:44:45.332Z,4.53
2023-01-25T21:47:51.314Z,4.26
2023-01-25T21:50:55.169Z,4.74
2023-01-25T21:53:59.364Z,4.95
2023-01-25T21:57:03.461Z,4.39
2023-01-25T22:00:07.797Z,4.43
2023-01-25T22:03:12.357Z,4.73
2023-01-25T22:06:16.396Z,4.55
2023-01-25T22:09:20.534Z,4.93
2023-01-25T22:12:24.865Z,4.97
2023-01-25T22:15:28.792Z,5.21
2023-01-25T22:18:34.785Z,5.26
2023-01-25T22:21:39.610Z,5.24
2023-01-25T22:24:43.731Z,4.30
2023-01-25T22:27:47.527Z,4.59
2023-01-25T22:30:51.828Z,5.00
2023-01-25T22:33:55.583Z,4.77
2023-01-25T22:36:59.473Z,5.04
2023-01-25T22:40:03.634Z,4.93
2023-01-25T22:43:07.765Z,5.13
2023-01-25T22:46:11.874Z,5.28
2023-01-25T22:49:15.727Z,5.11
2023-01-25T22:52:19.722Z,5.08
2023-01-25T22:55:23.857Z,5.30
2023-01-25T22:58:29.568Z,5.30
2023-01-25T23:01:33.541Z,4.68
2023-01-25T23:04:37.447Z,4.93
2023-01-25T23:07:41.589Z,5.06
2023-01-25T23:10:45.604Z,5.21
2023-01-25T23:13:49.628Z,4.68
2023-01-25T23:16:53.642Z,5.10
2023-01-25T23:19:57.677Z,5.25
2023-01-25T23:23:01.609Z,5.30
2023-01-25T23:26:05.922Z,5.24
2023-01-25T23:29:09.709Z,4.83
2023-01-25T23:32:13.615Z,4.61
2023-01-25T23:35:17.825Z,4.80
2023-01-25T23:38:22.179Z,4.90
2023-01-25T23:41:26.463Z,4.61
2023-01-25T23:44:30.447Z,4.58
2023-01-25T23:47:34.327Z,4.47
2023-01-25T23:50:38.338Z,4.44
2023-01-25T23:53:42.457Z,4.66
2023-01-25T23:56:46.366Z,5.17
2023-01-25T23:59:50.268Z,4.93
